Time;durP1;ratioP1;P1;durP2;ratioP2;P2;SDS_P1;SDS_P2;PMS_P1;PMS_P2;Temp;Humidity;BMP_temperature;BMP_pressure;BME280_temperature;BME280_humidity;BME280_pressure;Samples;Min_cycle;Max_cycle;Signal;HPM_P1;HPM_P2
2023/04/13 00:01:07;;;;;;;9.90;8.90;;;;;;;20.40;33.18;94283.38;6136001;28;108885;-64
2023/04/13 00:04:12;;;;;;;9.10;8.30;;;;;;;20.36;33.17;94269.94;6182129;22;111910;-65
2023/04/13 00:07:16;;;;;;;9.00;8.30;;;;;;;20.39;33.10;94273.84;6199593;28;108881;-65
2023/04/13 00:10:20;;;;;;;8.50;7.70;;;;;;;20.36;32.80;94271.81;6182540;28;108902;-65
2023/04/13 00:13:24;;;;;;;9.00;8.20;;;;;;;20.38;33.04;94285.56;6195752;28;108977;-65
2023/04/13 00:16:28;;;;;;;9.23;8.43;;;;;;;20.36;33.09;94279.78;6187652;28;109068;-65
2023/04/13 00:19:35;;;;;;;8.73;8.03;;;;;;;20.36;32.99;94288.53;6182880;28;108925;-65
2023/04/13 00:22:38;;;;;;;8.20;7.50;;;;;;;20.36;33.20;94293.06;6173965;28;108969;-65
2023/04/13 00:25:41;;;;;;;8.10;7.47;;;;;;;20.35;33.05;94292.28;6192444;28;108956;-65
2023/04/13 00:28:45;;;;;;;8.23;7.43;;;;;;;20.36;33.11;94295.72;6185497;28;108876;-65
2023/04/13 00:31:48;;;;;;;8.00;7.20;;;;;;;20.34;33.04;94300.56;6181087;28;110056;-65
2023/04/13 00:34:53;;;;;;;8.10;7.40;;;;;;;20.34;33.05;94295.25;6178349;28;109724;-65
2023/04/13 00:37:57;;;;;;;7.93;7.30;;;;;;;20.34;32.91;94298.69;6190427;28;108866;-65
2023/04/13 00:41:01;;;;;;;9.47;7.53;;;;;;;20.34;33.08;94290.72;6184663;28;109019;-65
2023/04/13 00:44:04;;;;;;;7.97;7.27;;;;;;;20.32;33.21;94298.19;6175639;28;109037;-65
2023/04/13 00:47:07;;;;;;;7.70;7.00;;;;;;;20.32;32.91;94290.22;6186319;28;109017;-64
2023/04/13 00:50:13;;;;;;;7.90;7.20;;;;;;;20.30;32.86;94300.38;6185816;28;109225;-65
2023/04/13 00:53:17;;;;;;;7.87;7.20;;;;;;;20.32;32.93;94298.19;6178553;28;109193;-65
2023/04/13 00:56:21;;;;;;;7.80;7.00;;;;;;;20.30;33.07;94295.06;6179949;28;108960;-65
2023/04/13 00:59:27;;;;;;;7.30;6.70;;;;;;;20.26;33.12;94289.59;6192220;28;108964;-65
2023/04/13 01:02:30;;;;;;;7.33;6.73;;;;;;;20.26;33.03;94286.94;6192528;28;108925;-65
2023/04/13 01:05:40;;;;;;;7.67;7.00;;;;;;;20.23;33.10;94295.53;6195683;28;109021;-65
2023/04/13 01:08:47;;;;;;;7.03;6.43;;;;;;;20.27;32.96;94295.72;6179293;28;108995;-64
2023/04/13 01:11:56;;;;;;;7.37;6.77;;;;;;;20.25;33.06;94292.59;6200554;28;108944;-64
2023/04/13 01:15:07;;;;;;;7.57;6.87;;;;;;;20.24;32.93;94301.63;6194384;28;109177;-65
2023/04/13 01:18:14;;;;;;;7.27;6.57;;;;;;;20.21;32.83;94292.41;6183613;28;108927;-65
2023/04/13 01:21:23;;;;;;;7.70;7.00;;;;;;;20.24;33.05;94294.47;6201982;28;108925;-65
2023/04/13 01:24:38;;;;;;;6.90;6.30;;;;;;;20.23;32.92;94290.22;6192203;28;109007;-66
2023/04/13 01:27:47;;;;;;;6.80;6.20;;;;;;;20.22;32.93;94293.97;6192647;28;108688;-66
2023/04/13 01:30:53;;;;;;;6.50;5.90;;;;;;;20.23;32.98;94294.75;6173921;28;109924;-65
2023/04/13 01:33:57;;;;;;;6.10;5.60;;;;;;;20.21;32.76;94297.72;6187202;28;109001;-65
2023/04/13 01:37:05;;;;;;;7.00;6.30;;;;;;;20.20;32.79;94296.16;6187621;28;108988;-65
2023/04/13 01:40:11;;;;;;;6.23;5.63;;;;;;;20.20;32.98;94298.03;6190565;28;109012;-65
2023/04/13 01:43:17;;;;;;;6.17;5.63;;;;;;;20.20;32.77;94301.47;6186105;28;108943;-65
2023/04/13 01:46:23;;;;;;;6.13;5.63;;;;;;;20.17;33.14;94296.78;6191135;28;108701;-66
2023/04/13 01:49:28;;;;;;;7.27;6.57;;;;;;;20.19;32.99;94297.25;6190098;28;108946;-66
2023/04/13 01:52:33;;;;;;;7.10;6.50;;;;;;;20.18;32.99;94290.38;6206053;28;108859;-65
2023/04/13 01:55:38;;;;;;;7.60;6.90;;;;;;;20.16;32.75;94284.56;6208308;28;108899;-65
2023/04/13 01:58:43;;;;;;;8.10;7.40;;;;;;;20.15;32.76;94280.34;6192464;28;108842;-66
2023/04/13 02:01:47;;;;;;;8.60;7.40;;;;;;;20.15;32.95;94290.97;6191873;28;108897;-65
2023/04/13 02:04:50;;;;;;;8.57;7.87;;;;;;;20.17;32.93;94282.72;6192572;28;109834;-65
2023/04/13 02:07:53;;;;;;;8.33;7.63;;;;;;;20.14;32.88;94273.47;6209226;28;108929;-65
2023/04/13 02:10:56;;;;;;;8.87;8.07;;;;;;;20.14;32.93;94278.78;6187937;28;108960;-65
2023/04/13 02:14:01;;;;;;;8.37;7.50;;;;;;;20.13;32.70;94279.09;6199770;28;108937;-65
2023/04/13 02:17:04;;;;;;;8.73;7.83;;;;;;;20.14;32.70;94286.75;6202660;28;108915;-65
2023/04/13 02:20:11;;;;;;;9.33;8.53;;;;;;;20.16;32.78;94294.41;6202852;28;108910;-65
2023/04/13 02:23:14;;;;;;;8.93;8.17;;;;;;;20.13;32.64;94295.03;6192821;28;108951;-65
2023/04/13 02:26:17;;;;;;;9.03;8.27;;;;;;;20.13;32.52;94303.78;6184049;28;108982;-65
2023/04/13 02:29:22;;;;;;;8.33;7.50;;;;;;;20.13;32.79;94309.09;6187174;28;108992;-65
2023/04/13 02:32:26;;;;;;;8.40;7.70;;;;;;;20.12;32.63;94304.88;6192902;28;108990;-64
2023/04/13 02:35:29;;;;;;;9.40;8.60;;;;;;;20.10;32.75;94309.72;6188322;28;108974;-65
2023/04/13 02:38:33;;;;;;;8.63;7.90;;;;;;;20.11;32.65;94308.63;6177155;28;109669;-64
2023/04/13 02:41:36;;;;;;;8.63;7.93;;;;;;;20.09;32.77;94313.47;6191164;28;109203;-65
2023/04/13 02:44:40;;;;;;;9.23;8.43;;;;;;;20.09;32.82;94321.44;6186013;28;108930;-65
2023/04/13 02:47:44;;;;;;;8.70;7.90;;;;;;;20.10;32.68;94317.69;6186836;28;108933;-65
2023/04/13 02:50:47;;;;;;;8.00;7.40;;;;;;;20.11;32.80;94313.94;6183777;28;108982;-65
2023/04/13 02:53:51;;;;;;;8.53;7.83;;;;;;;20.09;32.71;94321.44;6186455;28;108885;-65
2023/04/13 02:56:54;;;;;;;8.30;7.60;;;;;;;20.09;32.63;94326.75;6186555;28;109095;-64
2023/04/13 02:59:59;;;;;;;8.73;8.00;;;;;;;20.08;32.58;94325.19;6179916;28;108973;-67
2023/04/13 03:03:02;;;;;;;8.20;7.50;;;;;;;20.08;32.51;94324.41;6193135;28;109306;-64
2023/04/13 03:06:06;;;;;;;10.80;7.17;;;;;;;20.06;32.79;94332.69;6187510;28;108872;-60
2023/04/13 03:09:10;;;;;;;5.53;5.03;;;;;;;19.70;31.75;94330.25;6186850;28;108968;-60
2023/04/13 03:12:13;;;;;;;5.17;4.77;;;;;;;19.40;31.30;94331.81;6177364;28;109828;-60
2023/04/13 03:15:18;;;;;;;5.33;4.83;;;;;;;19.37;31.03;94321.81;6185593;28;109085;-59
2023/04/13 03:18:22;;;;;;;5.93;4.53;;;;;;;19.23;30.01;94337.81;6190367;28;108883;-66
2023/04/13 03:21:25;;;;;;;5.73;3.80;;;;;;;19.09;29.39;94337.91;6203605;28;108903;-61
2023/04/13 03:24:29;;;;;;;7.60;5.97;;;;;;;18.88;29.10;94330.75;6175917;28;108894;-60
2023/04/13 03:27:32;;;;;;;11.47;8.20;;;;;;;18.79;28.92;94328.81;6191309;28;108851;-61
2023/04/13 03:30:37;;;;;;;13.93;8.73;;;;;;;18.84;28.53;94330.56;6193014;28;109036;-61
2023/04/13 03:33:40;;;;;;;11.43;9.13;;;;;;;18.73;28.34;94330.03;6191733;28;108870;-61
2023/04/13 03:36:43;;;;;;;10.97;7.70;;;;;;;18.56;28.45;94339.72;6183566;28;108846;-61
2023/04/13 03:39:46;;;;;;;12.30;7.67;;;;;;;18.51;27.97;94335.28;6185739;28;109362;-60
2023/04/13 03:42:50;;;;;;;8.07;6.73;;;;;;;18.48;27.62;94344.63;6185249;28;108887;-60
2023/04/13 03:45:54;;;;;;;5.40;4.70;;;;;;;18.38;27.22;94346.72;6174439;28;108999;-60
2023/04/13 03:48:58;;;;;;;4.43;3.77;;;;;;;18.28;27.51;94345.06;6186618;28;109036;-61
2023/04/13 03:52:01;;;;;;;5.07;3.70;;;;;;;18.21;27.23;94349.97;6187929;28;108825;-61
2023/04/13 03:55:05;;;;;;;4.60;3.70;;;;;;;18.16;27.01;94347.44;6194575;28;108837;-61
2023/04/13 03:58:10;;;;;;;3.73;3.40;;;;;;;18.10;26.30;94343.31;6176077;28;109951;-69
2023/04/13 04:01:15;;;;;;;3.73;3.43;;;;;;;16.53;27.32;94345.03;6189086;28;109104;-68
2023/04/13 04:04:18;;;;;;;9.07;8.20;;;;;;;16.54;28.07;94353.72;6185684;28;109101;-68
2023/04/13 04:07:22;;;;;;;4.50;2.87;;;;;;;16.28;28.99;94345.38;6185943;28;108891;-67
2023/04/13 04:10:26;;;;;;;5.33;3.20;;;;;;;16.47;29.00;94353.28;6174932;28;108788;-68
2023/04/13 04:13:29;;;;;;;4.17;3.13;;;;;;;17.19;29.43;94351.91;6186255;28;108970;-63
2023/04/13 04:16:33;;;;;;;4.20;3.10;;;;;;;18.05;28.93;94351.38;6184715;28;108989;-65
2023/04/13 04:19:37;;;;;;;5.00;3.23;;;;;;;18.45;27.81;94347.06;6176699;28;108924;-68
2023/04/13 04:22:40;;;;;;;4.47;3.10;;;;;;;18.71;27.86;94357.91;6185169;28;108904;-68
2023/04/13 04:25:44;;;;;;;4.80;2.90;;;;;;;18.85;28.24;94358.66;6185340;28;109070;-68
2023/04/13 04:28:49;;;;;;;7.00;2.70;;;;;;;18.95;28.09;94353.09;6185192;28;108905;-68
2023/04/13 04:31:53;;;;;;;4.10;2.63;;;;;;;19.04;28.56;94353.94;6174651;28;108781;-68
2023/04/13 04:34:56;;;;;;;3.33;3.03;;;;;;;19.10;28.42;94360.69;6186000;28;108961;-68
2023/04/13 04:38:02;;;;;;;2.70;2.50;;;;;;;19.15;28.28;94367.72;6185553;28;108888;-68
2023/04/13 04:41:07;;;;;;;3.47;2.60;;;;;;;19.20;28.77;94369.47;6185859;28;108885;-68
2023/04/13 04:44:11;;;;;;;3.70;2.97;;;;;;;19.23;28.44;94371.53;6174441;28;108867;-68
2023/04/13 04:47:18;;;;;;;3.10;2.80;;;;;;;19.26;28.45;94361.06;6184049;28;108949;-66
2023/04/13 04:50:21;;;;;;;2.60;2.40;;;;;;;19.29;28.54;94360.47;6184815;28;108938;-67
2023/04/13 04:53:25;;;;;;;5.10;3.03;;;;;;;19.32;28.72;94364.38;6179847;28;108930;-68
2023/04/13 04:56:28;;;;;;;3.47;2.50;;;;;;;19.35;28.59;94369.09;6179759;28;108879;-68
2023/04/13 04:59:31;;;;;;;3.13;2.90;;;;;;;19.36;28.60;94368.00;6184983;28;109056;-68
2023/04/13 05:02:36;;;;;;;4.00;2.70;;;;;;;19.34;28.74;94368.31;6184986;28;108941;-68
2023/04/13 05:05:39;;;;;;;3.90;2.60;;;;;;;19.39;28.77;94368.19;6174649;28;108951;-69
2023/04/13 05:08:44;;;;;;;3.37;2.80;;;;;;;19.41;28.89;94371.34;6185097;28;108972;-68
2023/04/13 05:11:47;;;;;;;3.53;3.17;;;;;;;19.43;28.93;94373.69;6184784;28;109015;-68
2023/04/13 05:14:50;;;;;;;3.13;2.57;;;;;;;19.43;28.84;94373.69;6184915;28;108998;-68
2023/04/13 05:17:54;;;;;;;3.83;2.90;;;;;;;19.45;29.12;94373.38;6173247;28;108987;-69
2023/04/13 05:20:58;;;;;;;2.40;2.20;;;;;;;19.46;29.05;94374.94;6184101;28;109005;-68
2023/04/13 05:24:01;;;;;;;3.30;3.00;;;;;;;19.47;29.16;94376.50;6182642;28;108979;-69
2023/04/13 05:27:04;;;;;;;3.27;2.77;;;;;;;19.48;29.18;94375.41;6178312;28;108971;-68
2023/04/13 05:30:09;;;;;;;3.27;3.07;;;;;;;19.49;29.47;94372.47;6176917;28;109327;-69
2023/04/13 05:33:15;;;;;;;3.10;2.80;;;;;;;19.51;29.36;94380.91;6160186;28;108849;-69
2023/04/13 05:36:19;;;;;;;3.40;2.87;;;;;;;19.53;29.35;94380.59;6159534;28;108975;-69
2023/04/13 05:39:23;;;;;;;4.87;2.87;;;;;;;19.52;29.33;94371.88;6149305;28;108900;-68
2023/04/13 05:42:26;;;;;;;2.80;2.60;;;;;;;19.55;29.56;94375.78;6162386;28;108813;-69
2023/04/13 05:45:29;;;;;;;3.03;2.70;;;;;;;19.60;29.12;94370.31;6176032;28;109034;-69
2023/04/13 05:48:33;;;;;;;3.20;2.90;;;;;;;19.69;29.19;94374.59;6187459;28;108917;-69
2023/04/13 05:51:36;;;;;;;3.23;2.93;;;;;;;19.78;29.36;94369.31;6178089;28;108937;-69
2023/04/13 05:54:39;;;;;;;3.70;2.90;;;;;;;19.86;29.19;94373.09;6188325;28;109004;-68
2023/04/13 05:57:42;;;;;;;3.10;2.77;;;;;;;19.93;29.43;94373.41;6187982;28;108876;-68
2023/04/13 06:00:46;;;;;;;3.00;2.57;;;;;;;19.98;29.09;94379.34;6188599;28;108885;-69
2023/04/13 06:03:51;;;;;;;3.40;3.10;;;;;;;20.03;28.89;94371.28;6177172;28;108906;-69
2023/04/13 06:06:54;;;;;;;3.37;3.07;;;;;;;20.09;28.98;94358.63;6188328;28;108788;-69
2023/04/13 06:09:59;;;;;;;2.87;2.57;;;;;;;20.13;28.76;94353.47;6190281;28;109005;-69
2023/04/13 06:13:02;;;;;;;3.40;3.10;;;;;;;20.17;28.92;94360.53;6183002;28;108920;-68
2023/04/13 06:16:07;;;;;;;3.73;2.90;;;;;;;20.23;29.04;94374.44;6185027;28;110953;-69
2023/04/13 06:19:12;;;;;;;2.93;2.63;;;;;;;20.27;29.14;94370.09;6188846;28;108874;-68
2023/04/13 06:22:15;;;;;;;3.37;2.90;;;;;;;20.31;28.66;94366.50;6189982;28;108865;-68
2023/04/13 06:25:18;;;;;;;3.90;3.30;;;;;;;20.40;29.33;94369.19;6178696;28;109118;-67
2023/04/13 06:28:27;;;;;;;4.10;3.37;;;;;;;20.46;28.87;94364.50;6191549;28;109186;-69
2023/04/13 06:31:30;;;;;;;4.17;3.10;;;;;;;20.51;29.45;94380.31;6191042;28;108976;-68
2023/04/13 06:34:35;;;;;;;4.10;3.77;;;;;;;20.48;29.34;94376.38;6190469;28;109156;-67
2023/04/13 06:37:38;;;;;;;3.50;3.20;;;;;;;20.56;29.42;94372.16;6178917;28;109062;-69
2023/04/13 06:40:41;;;;;;;5.83;3.70;;;;;;;20.59;29.21;94379.50;6189818;28;108914;-66
2023/04/13 06:43:45;;;;;;;3.60;3.30;;;;;;;20.62;29.49;94381.53;6188516;28;108807;-68
2023/04/13 06:46:48;;;;;;;4.97;3.47;;;;;;;20.66;29.50;94376.38;6183934;28;108997;-68
2023/04/13 06:49:52;;;;;;;4.37;3.17;;;;;;;20.66;29.95;94371.84;6184156;28;108901;-69
2023/04/13 06:52:55;;;;;;;3.67;3.37;;;;;;;20.68;29.55;94369.69;6189079;28;108819;-69
2023/04/13 06:56:01;;;;;;;5.50;3.27;;;;;;;20.70;29.86;94372.81;6189916;28;108895;-69
2023/04/13 06:59:04;;;;;;;4.33;3.20;;;;;;;20.77;29.39;94367.78;6178578;28;109011;-67
2023/04/13 07:02:08;;;;;;;4.33;3.70;;;;;;;20.80;29.09;94372.47;6189978;28;108844;-68
2023/04/13 07:05:13;;;;;;;4.83;3.40;;;;;;;20.83;29.43;94369.19;6188780;28;108887;-68
2023/04/13 07:08:18;;;;;;;4.30;3.33;;;;;;;20.85;29.28;94374.22;6189377;28;108508;-68
2023/04/13 07:11:21;;;;;;;4.97;3.47;;;;;;;20.84;29.50;94368.13;6179091;28;109002;-68
2023/04/13 07:14:24;;;;;;;3.50;3.20;;;;;;;20.87;29.28;94372.81;6183329;28;109023;-68
2023/04/13 07:17:27;;;;;;;3.90;3.50;;;;;;;20.89;29.21;94378.59;6189051;28;108813;-68
2023/04/13 07:20:33;;;;;;;3.93;2.77;;;;;;;20.91;29.32;94376.38;6188290;28;108992;-68
2023/04/13 07:23:36;;;;;;;4.10;3.10;;;;;;;20.92;29.06;94369.97;6180510;28;111711;-69
2023/04/13 07:26:40;;;;;;;4.90;3.80;;;;;;;20.94;29.31;94372.31;6187865;28;108888;-66
2023/04/13 07:29:43;;;;;;;3.83;3.17;;;;;;;;;;6187467;28;108929;-67
2023/04/13 07:32:46;;;;;;;3.10;2.80;;;;;;;20.96;29.24;94367.47;6178690;28;108948;-67
2023/04/13 07:35:53;;;;;;;6.20;3.27;;;;;;;20.99;29.36;94371.38;6186561;28;108901;-67
2023/04/13 07:38:56;;;;;;;4.00;3.33;;;;;;;20.99;29.29;94360.72;6187167;28;108998;-67
2023/04/13 07:42:00;;;;;;;3.37;3.07;;;;;;;21.00;29.38;94354.31;6187168;28;108892;-67
2023/04/13 07:45:03;;;;;;;3.80;3.37;;;;;;;20.98;28.95;94357.28;6177887;28;109796;-67
2023/04/13 07:48:07;;;;;;;2.80;2.40;;;;;;;21.02;29.24;94346.81;6186653;28;108958;-65
2023/04/13 07:51:17;;;;;;;3.60;3.30;;;;;;;21.03;29.36;94343.06;6186353;28;108987;-66
2023/04/13 07:54:21;;;;;;;3.53;3.03;;;;;;;21.04;29.32;94345.41;6187577;28;108600;-65
2023/04/13 07:57:24;;;;;;;3.73;3.33;;;;;;;21.04;28.98;94345.41;6177033;28;109989;-66
2023/04/13 08:00:27;;;;;;;3.40;3.00;;;;;;;21.06;29.01;94337.13;6186807;28;109135;-66
2023/04/13 08:03:30;;;;;;;2.63;2.37;;;;;;;21.06;29.07;94335.25;6185662;28;108942;-66
2023/04/13 08:06:36;;;;;;;3.30;3.00;;;;;;;21.07;29.12;94339.47;6180947;28;108899;-66
2023/04/13 08:09:40;;;;;;;4.53;3.80;;;;;;;21.08;29.23;94333.06;6180731;28;108968;-66
2023/04/13 08:12:43;;;;;;;2.90;2.60;;;;;;;21.09;29.18;94339.16;6186355;28;108962;-66
2023/04/13 08:15:46;;;;;;;2.97;2.67;;;;;;;21.10;28.96;94344.16;6185949;28;108978;-66
2023/04/13 08:18:50;;;;;;;3.77;2.60;;;;;;;21.09;29.09;94337.28;6175918;28;108956;-67
2023/04/13 08:21:55;;;;;;;3.77;2.67;;;;;;;21.14;29.86;94331.00;6185141;28;108876;-66
2023/04/13 08:24:58;;;;;;;3.67;2.53;;;;;;;21.15;29.68;94329.91;6185967;28;109623;-66
2023/04/13 08:28:01;;;;;;;3.30;2.50;;;;;;;21.17;29.65;94325.03;6185314;28;109031;-66
2023/04/13 08:31:06;;;;;;;3.43;2.80;;;;;;;21.18;29.80;94316.00;6175039;28;110057;-66
2023/04/13 08:34:11;;;;;;;2.53;2.33;;;;;;;21.17;29.88;94317.06;6185899;28;108935;-66
2023/04/13 08:37:16;;;;;;;3.80;2.87;;;;;;;21.18;29.44;94308.78;6185767;28;108964;-66
2023/04/13 08:40:19;;;;;;;2.77;2.47;;;;;;;21.21;29.63;94312.69;6181343;28;108850;-66
2023/04/13 08:43:23;;;;;;;5.23;2.47;;;;;;;21.20;29.41;94311.13;6180707;28;108589;-66
2023/04/13 08:46:26;;;;;;;3.10;2.23;;;;;;;21.21;29.61;94307.38;6176122;28;108893;-66
2023/04/13 08:49:32;;;;;;;3.97;2.77;;;;;;;21.19;29.52;94298.94;6185902;28;108929;-67
2023/04/13 08:52:36;;;;;;;2.90;2.70;;;;;;;21.19;29.54;94293.59;6175370;28;108933;-67
2023/04/13 08:55:44;;;;;;;2.97;2.50;;;;;;;21.21;29.53;94300.16;6185250;28;108928;-66
2023/04/13 08:58:49;;;;;;;2.67;2.47;;;;;;;21.21;29.81;94302.81;6185399;28;108898;-65
2023/04/13 09:01:54;;;;;;;3.00;2.27;;;;;;;21.21;29.29;94296.72;6185433;28;108958;-66
2023/04/13 09:05:02;;;;;;;3.80;2.60;;;;;;;21.22;30.13;94292.97;6174752;28;108869;-67
2023/04/13 09:08:10;;;;;;;2.80;2.50;;;;;;;21.24;29.58;94298.75;6185126;28;108984;-66
2023/04/13 09:11:13;;;;;;;2.77;2.47;;;;;;;21.27;29.59;94299.97;6186015;28;108826;-66
2023/04/13 09:14:18;;;;;;;3.00;2.30;;;;;;;21.27;29.44;94302.66;6184213;28;108958;-67
2023/04/13 09:17:26;;;;;;;2.57;2.17;;;;;;;21.30;29.40;94291.34;6183085;28;108950;-66
2023/04/13 09:20:30;;;;;;;3.20;2.90;;;;;;;21.30;29.57;94294.03;6189354;28;109044;-66
2023/04/13 09:23:35;;;;;;;2.80;2.37;;;;;;;21.31;29.22;94291.03;6189049;28;109023;-67
2023/04/13 09:26:43;;;;;;;2.77;2.30;;;;;;;21.31;29.55;94291.03;6179167;28;108890;-66
2023/04/13 09:29:53;;;;;;;3.07;2.77;;;;;;;21.29;29.90;94293.25;6189581;28;108891;-66
2023/04/13 09:33:06;;;;;;;3.00;2.40;;;;;;;21.27;29.81;94281.34;6189721;28;109061;-66
2023/04/13 09:36:10;;;;;;;4.07;2.70;;;;;;;21.29;30.31;94281.81;6189838;28;108834;-67
2023/04/13 09:39:16;;;;;;;4.20;2.30;;;;;;;21.28;29.95;94270.41;6179514;28;109835;-66
2023/04/13 09:42:19;;;;;;;3.63;2.13;;;;;;;21.28;30.00;94270.41;6189623;28;109220;-66
2023/04/13 09:45:23;;;;;;;3.03;2.50;;;;;;;21.28;29.76;94265.06;6189064;28;108969;-66
2023/04/13 09:48:26;;;;;;;3.00;2.47;;;;;;;21.28;29.94;94265.06;6185208;28;108887;-66
2023/04/13 09:51:37;;;;;;;2.30;2.10;;;;;;;21.26;29.94;94248.66;6183694;28;109015;-66
2023/04/13 09:54:41;;;;;;;3.50;2.43;;;;;;;21.26;29.88;94258.50;6188115;28;108987;-67
2023/04/13 09:57:44;;;;;;;2.47;2.30;;;;;;;21.25;30.12;94246.31;6188945;28;108986;-66
2023/04/13 10:00:48;;;;;;;3.33;2.40;;;;;;;21.24;29.70;94237.53;6178579;28;109170;-66
2023/04/13 10:03:52;;;;;;;3.50;2.80;;;;;;;21.24;29.69;94240.22;6188140;28;108941;-65
2023/04/13 10:06:55;;;;;;;2.60;2.20;;;;;;;21.23;29.87;94232.53;6188353;28;108893;-66
2023/04/13 10:09:59;;;;;;;2.70;2.47;;;;;;;21.23;29.86;94230.66;6189027;28;108902;-66
2023/04/13 10:13:05;;;;;;;2.30;2.10;;;;;;;21.22;29.81;94229.09;6179857;28;109541;-66
2023/04/13 10:16:41;;;;;;;3.03;2.80;;;;;;;21.21;30.27;94217.69;6188710;28;108884;-66
2023/04/13 10:19:48;;;;;;;4.50;3.43;;;;;;;21.21;30.20;94217.69;6188941;28;108786;-66
2023/04/13 10:22:53;;;;;;;4.10;3.13;;;;;;;21.20;30.39;94215.34;6183379;28;108906;-66
2023/04/13 10:25:59;;;;;;;2.87;2.60;;;;;;;21.20;30.17;94218.00;6182285;28;110675;-66
2023/04/13 10:29:04;;;;;;;3.07;2.77;;;;;;;21.21;29.89;94211.59;6187471;28;109040;-67
2023/04/13 10:32:07;;;;;;;3.00;2.20;;;;;;;21.19;30.22;94205.81;6187394;28;108882;-67
2023/04/13 10:35:14;;;;;;;2.67;2.47;;;;;;;21.19;30.07;94209.25;6178689;28;109786;-67
2023/04/13 10:38:17;;;;;;;3.20;2.33;;;;;;;21.19;30.13;94205.81;6187726;28;108659;-67
2023/04/13 10:41:25;;;;;;;3.60;2.50;;;;;;;21.19;30.17;94195.16;6187628;28;108937;-67
2023/04/13 10:44:28;;;;;;;2.40;2.20;;;;;;;21.18;30.32;94196.25;6187588;28;109177;-66
2023/04/13 10:47:36;;;;;;;3.10;2.53;;;;;;;21.16;30.02;94198.44;6177191;28;110126;-67
2023/04/13 10:50:39;;;;;;;4.00;2.40;;;;;;;21.16;30.58;94185.13;6187548;28;108930;-66
2023/04/13 10:53:42;;;;;;;2.40;2.10;;;;;;;21.15;30.37;94192.34;6187705;28;109036;-67
2023/04/13 10:56:57;;;;;;;2.33;2.13;;;;;;;21.13;30.53;94188.44;6181674;28;108894;-67
2023/04/13 11:00:00;;;;;;;3.97;2.60;;;;;;;21.14;30.44;94187.34;6182447;28;109031;-67
2023/04/13 11:03:05;;;;;;;3.10;2.80;;;;;;;21.12;30.33;94179.69;6186778;28;108928;-67
2023/04/13 11:06:08;;;;;;;2.53;2.30;;;;;;;21.11;30.16;94177.34;6187115;28;108843;-67
2023/04/13 11:09:11;;;;;;;2.90;2.70;;;;;;;21.11;30.28;94172.81;6177133;28;108889;-67
2023/04/13 11:12:20;;;;;;;3.33;2.70;;;;;;;21.08;30.31;94170.78;6187264;28;108847;-67
2023/04/13 11:15:25;;;;;;;2.90;2.50;;;;;;;21.09;30.56;94160.94;6187018;28;108906;-68
2023/04/13 11:18:28;;;;;;;3.83;2.67;;;;;;;21.08;30.59;94165.47;6186904;28;108927;-68
2023/04/13 11:21:34;;;;;;;2.47;2.27;;;;;;;21.08;30.47;94162.81;6176319;28;108833;-68
2023/04/13 11:24:37;;;;;;;3.23;2.93;;;;;;;21.08;30.46;94160.16;6187328;28;108699;-67
2023/04/13 11:27:41;;;;;;;3.17;2.70;;;;;;;21.06;30.22;94162.34;6185961;28;108977;-68
2023/04/13 11:30:52;;;;;;;2.80;2.60;;;;;;;21.07;30.47;94161.25;6182908;28;109126;-67
2023/04/13 11:33:55;;;;;;;3.63;2.90;;;;;;;21.06;30.42;94150.94;6181337;28;108960;-68
2023/04/13 11:37:04;;;;;;;3.47;2.87;;;;;;;21.04;30.60;94151.22;6186786;28;108826;-68
2023/04/13 11:40:15;;;;;;;3.30;3.00;;;;;;;21.04;30.57;94150.44;6185565;28;108988;-67
2023/04/13 11:43:20;;;;;;;2.93;2.73;;;;;;;21.04;30.42;94153.09;6175829;28;108846;-68
2023/04/13 11:46:25;;;;;;;3.70;3.30;;;;;;;21.04;30.75;94150.44;6186283;28;108907;-67
2023/04/13 11:49:28;;;;;;;4.43;3.20;;;;;;;21.04;30.76;94147.78;6186395;28;108901;-67
2023/04/13 11:52:32;;;;;;;3.60;2.80;;;;;;;21.03;30.56;94147.00;6185905;28;108981;-67
2023/04/13 11:55:36;;;;;;;3.53;3.23;;;;;;;21.06;30.78;94150.94;6174730;28;109237;-66
2023/04/13 11:58:56;;;;;;;3.23;2.73;;;;;;;21.07;30.68;94147.94;6183664;28;108891;-62
2023/04/13 12:02:04;;;;;;;4.00;2.67;;;;;;;21.06;30.79;94140.28;6185689;28;108852;-62
2023/04/13 12:05:23;;;;;;;7.03;6.37;;;;;;;21.05;30.86;94133.41;6180314;28;108941;-62
2023/04/13 12:08:28;;;;;;;6.87;5.43;;;;;;;21.03;30.61;94138.25;6183388;28;108865;-62
2023/04/13 12:11:39;;;;;;;5.33;4.90;;;;;;;21.00;30.13;94136.97;6185997;28;108842;-62
2023/04/13 12:14:54;;;;;;;5.23;4.13;;;;;;;20.98;30.49;94127.78;6185903;28;108896;-64
2023/04/13 12:18:19;;;;;;;5.83;4.37;;;;;;;21.01;30.44;94137.78;6174207;28;108906;-63
2023/04/13 12:21:27;;;;;;;5.70;4.10;;;;;;;20.98;30.18;94119.78;6186039;28;108952;-63
2023/04/13 12:24:32;;;;;;;9.53;4.37;;;;;;;21.00;30.21;94115.72;6185835;28;108916;-63
2023/04/13 12:27:39;;;;;;;4.50;4.10;;;;;;;20.98;30.32;94117.91;6180930;28;108984;-62
2023/04/13 12:30:46;;;;;;;6.47;4.00;;;;;;;20.98;30.14;94114.47;6178859;28;108971;-63
2023/04/13 12:33:50;;;;;;;4.20;3.70;;;;;;;21.01;30.46;94108.53;6186403;28;108629;-62
2023/04/13 12:36:53;;;;;;;4.47;3.53;;;;;;;20.98;30.52;94099.28;6185923;28;108846;-62
2023/04/13 12:39:56;;;;;;;4.37;3.77;;;;;;;21.01;30.67;94097.91;6175131;28;108874;-63
2023/04/13 12:42:59;;;;;;;4.67;4.03;;;;;;;21.00;30.78;94099.75;6185945;28;108850;-62
2023/04/13 12:46:03;;;;;;;5.40;3.63;;;;;;;21.01;31.16;94096.03;6185865;28;108778;-63
2023/04/13 12:49:06;;;;;;;4.57;4.17;;;;;;;21.02;32.61;94081.63;6185394;28;108919;-62
2023/04/13 12:52:09;;;;;;;6.00;5.47;;;;;;;21.03;33.98;94080.50;6174686;28;109051;-62
2023/04/13 12:55:12;;;;;;;11.43;10.43;;;;;;;21.04;37.31;94074.09;6185185;28;108905;-62
2023/04/13 12:58:15;;;;;;;5.53;4.97;;;;;;;21.02;31.84;94078.19;6185699;28;109230;-63
2023/04/13 13:01:20;;;;;;;4.90;4.20;;;;;;;20.85;29.97;94076.41;6184830;28;108741;-63
2023/04/13 13:04:23;;;;;;;7.23;3.67;;;;;;;20.80;29.75;94064.03;6174361;28;109958;-63
2023/04/13 13:07:27;;;;;;;4.67;4.13;;;;;;;20.80;30.18;94057.94;6185006;28;108898;-62
2023/04/13 13:10:30;;;;;;;4.43;4.03;;;;;;;20.79;30.19;94065.16;6184946;28;108890;-63
2023/04/13 13:13:33;;;;;;;8.63;5.90;;;;;;;20.89;35.42;94061.34;6179322;28;109029;-63
2023/04/13 13:16:37;;;;;;;7.93;4.87;;;;;;;21.00;37.23;94067.06;6181469;28;108817;-63
2023/04/13 13:19:41;;;;;;;5.67;5.03;;;;;;;21.04;38.61;94068.00;6184983;28;108911;-62
2023/04/13 13:22:44;;;;;;;4.93;4.40;;;;;;;21.06;38.66;94061.28;6185544;28;108846;-63
2023/04/13 13:25:49;;;;;;;5.43;4.80;;;;;;;21.08;38.74;94064.38;6173652;28;108938;-62
2023/04/13 13:29:12;;;;;;;4.67;4.23;;;;;;;21.09;39.45;94055.31;6184892;28;108886;-62
2023/04/13 13:32:16;;;;;;;5.17;4.00;;;;;;;21.10;40.59;94054.19;6184624;28;108840;-63
2023/04/13 13:35:22;;;;;;;6.60;4.57;;;;;;;21.11;40.92;94053.09;6184812;28;108907;-63
2023/04/13 13:38:26;;;;;;;4.40;3.47;;;;;;;21.09;40.82;94047.31;6172319;28;109203;-62
2023/04/13 13:41:29;;;;;;;3.77;3.37;;;;;;;21.11;41.20;94047.00;6184956;28;108842;-62
2023/04/13 13:44:32;;;;;;;6.80;3.80;;;;;;;21.11;40.77;94053.09;6184968;28;108904;-62
2023/04/13 13:47:40;;;;;;;4.20;3.67;;;;;;;21.10;40.55;94046.22;6179075;28;110469;-62
2023/04/13 13:50:43;;;;;;;3.73;3.43;;;;;;;21.11;40.29;94039.78;6181562;28;108944;-62
2023/04/13 13:53:46;;;;;;;4.03;3.23;;;;;;;21.11;39.89;94031.81;6184674;28;108984;-63
2023/04/13 13:56:49;;;;;;;5.67;3.20;;;;;;;21.09;39.56;94031.38;6184725;28;108849;-63
2023/04/13 13:59:52;;;;;;;5.80;3.30;;;;;;;21.12;39.23;94036.03;6173112;28;108979;-63
2023/04/13 14:02:56;;;;;;;4.87;3.50;;;;;;;21.12;38.75;94017.41;6185177;28;109033;-63
2023/04/13 14:06:00;;;;;;;6.50;3.60;;;;;;;21.14;39.02;94019.75;6188320;28;108879;-63
2023/04/13 14:09:04;;;;;;;4.70;3.60;;;;;;;21.14;38.54;94017.09;6188326;28;108962;-63
2023/04/13 14:12:07;;;;;;;3.80;2.93;;;;;;;21.15;38.31;94010.66;6178292;28;110605;-63
2023/04/13 14:15:11;;;;;;;4.27;3.57;;;;;;;21.14;37.95;94004.56;6187918;28;108904;-63
2023/04/13 14:18:16;;;;;;;5.70;3.33;;;;;;;21.14;37.70;94001.91;6187998;28;108968;-62
2023/04/13 14:21:20;;;;;;;3.80;3.43;;;;;;;21.14;37.13;94001.13;6183153;28;109029;-62